createdAt,value
2023-03-13T00:01:16.926Z,42.57
2023-03-13T00:03:43.268Z,42.54
2023-03-13T00:06:09.648Z,42.61
2023-03-13T00:08:35.980Z,42.77
2023-03-13T00:11:02.951Z,42.64
2023-03-13T00:13:29.289Z,42.63
2023-03-13T00:16:06.109Z,42.55
2023-03-13T00:18:32.547Z,42.66
2023-03-13T00:21:05.749Z,42.48
2023-03-13T00:23:32.361Z,42.63
2023-03-13T00:25:58.898Z,42.65
2023-03-13T00:28:25.248Z,42.59
2023-03-13T00:30:51.723Z,42.68
2023-03-13T00:33:18.088Z,42.68
2023-03-13T00:35:44.444Z,42.67
2023-03-13T00:38:10.805Z,42.57
2023-03-13T00:40:38.223Z,42.59
2023-03-13T00:43:04.562Z,42.62
2023-03-13T00:45:30.890Z,42.70
2023-03-13T00:47:57.395Z,42.69
2023-03-13T00:50:23.718Z,42.68
2023-03-13T00:52:50.071Z,42.68
2023-03-13T00:55:16.389Z,42.57
2023-03-13T00:57:42.731Z,42.55
2023-03-13T01:00:09.334Z,42.57
2023-03-13T01:02:40.769Z,42.83
2023-03-13T01:05:07.419Z,42.73
2023-03-13T01:07:33.760Z,42.64
2023-03-13T01:10:00.454Z,42.75
2023-03-13T01:12:26.806Z,42.58
2023-03-13T01:14:53.148Z,42.74
2023-03-13T01:17:21.782Z,42.62
2023-03-13T01:19:48.494Z,42.66
2023-03-13T01:22:14.831Z,42.65
2023-03-13T01:24:41.216Z,42.80
2023-03-13T01:27:07.547Z,42.72
2023-03-13T01:29:33.893Z,42.76
2023-03-13T01:32:00.279Z,42.75
2023-03-13T01:34:26.595Z,42.73
2023-03-13T01:36:52.933Z,42.80
2023-03-13T01:39:19.299Z,42.81
2023-03-13T01:41:45.632Z,42.75
2023-03-13T01:44:18.373Z,42.78
2023-03-13T01:46:44.754Z,42.71
2023-03-13T01:49:23.887Z,42.71
2023-03-13T01:52:10.571Z,42.85
2023-03-13T01:54:53.628Z,42.80
2023-03-13T01:57:27.332Z,42.59
2023-03-13T01:59:54.279Z,42.72
2023-03-13T02:02:20.961Z,42.68
2023-03-13T02:04:47.976Z,42.85
2023-03-13T02:07:15.833Z,42.78
2023-03-13T02:09:42.191Z,42.68
2023-03-13T02:12:15.081Z,42.73
2023-03-13T02:14:41.837Z,42.83
2023-03-13T02:17:17.869Z,42.80
2023-03-13T02:19:47.899Z,42.71
2023-03-13T02:22:24.767Z,42.69
2023-03-13T02:24:51.047Z,42.79
2023-03-13T02:27:17.848Z,42.92
2023-03-13T02:29:44.657Z,42.72
2023-03-13T02:32:12.050Z,42.83
2023-03-13T02:34:38.764Z,42.86
2023-03-13T02:37:05.864Z,42.81
2023-03-13T02:39:32.626Z,42.90
2023-03-13T02:41:59.023Z,42.82
2023-03-13T02:44:25.351Z,42.89
2023-03-13T02:46:52.511Z,42.87
2023-03-13T02:49:22.074Z,42.80
2023-03-13T02:51:48.991Z,42.88
2023-03-13T02:54:20.320Z,42.89
2023-03-13T02:56:47.221Z,42.92
2023-03-13T02:59:13.608Z,42.93
2023-03-13T03:01:42.789Z,42.92
2023-03-13T03:04:09.149Z,42.88
2023-03-13T03:06:35.490Z,42.79
2023-03-13T03:09:03.536Z,42.91
2023-03-13T03:11:33.309Z,42.89
2023-03-13T03:14:04.075Z,42.89
2023-03-13T03:16:35.632Z,42.91
2023-03-13T03:19:04.939Z,42.93
2023-03-13T03:21:31.273Z,42.90
2023-03-13T03:23:57.644Z,42.97
2023-03-13T03:26:24.388Z,42.97
2023-03-13T03:28:51.733Z,42.91
2023-03-13T03:31:18.384Z,42.97
2023-03-13T03:33:45.362Z,43.00
2023-03-13T03:36:15.211Z,43.03
2023-03-13T03:38:41.793Z,43.11
2023-03-13T03:41:09.648Z,43.03
2023-03-13T03:43:36.027Z,42.99
2023-03-13T03:46:04.225Z,42.98
2023-03-13T03:48:31.019Z,42.82
2023-03-13T03:50:57.413Z,42.75
2023-03-13T03:53:24.129Z,42.72
2023-03-13T03:55:50.492Z,42.82
2023-03-13T03:58:17.296Z,42.80
2023-03-13T04:00:59.302Z,42.88
2023-03-13T04:03:26.298Z,42.87
2023-03-13T04:05:52.957Z,42.83
2023-03-13T04:08:21.385Z,42.88
2023-03-13T04:10:47.719Z,42.87
2023-03-13T04:13:14.077Z,43.02
2023-03-13T04:15:40.488Z,42.93
2023-03-13T04:18:08.490Z,43.00
2023-03-13T04:20:35.259Z,42.87
2023-03-13T04:23:01.851Z,42.92
2023-03-13T04:25:28.284Z,43.01
2023-03-13T04:27:57.874Z,42.95
2023-03-13T04:30:28.133Z,42.97
2023-03-13T04:33:11.344Z,42.95
2023-03-13T04:35:46.637Z,43.09
2023-03-13T04:38:22.920Z,43.00
2023-03-13T04:41:06.332Z,43.08
2023-03-13T04:43:32.658Z,43.21
2023-03-13T04:46:21.875Z,43.14
2023-03-13T04:49:03.075Z,43.23
2023-03-13T04:51:32.299Z,43.11
2023-03-13T04:54:15.646Z,43.26
2023-03-13T04:56:57.706Z,43.19
2023-03-13T04:59:47.916Z,43.17
2023-03-13T05:02:33.079Z,43.24
2023-03-13T05:05:07.344Z,43.25
2023-03-13T05:07:59.784Z,43.17
2023-03-13T05:10:32.293Z,43.18
2023-03-13T05:13:15.612Z,43.15
2023-03-13T05:15:52.337Z,43.17
2023-03-13T05:18:30.974Z,43.20
2023-03-13T05:21:06.718Z,43.18
2023-03-13T05:23:51.379Z,43.25
2023-03-13T05:26:34.079Z,43.15
2023-03-13T05:29:25.258Z,43.40
2023-03-13T05:32:03.526Z,43.32
2023-03-13T05:34:51.096Z,43.17
2023-03-13T05:37:43.431Z,43.42
2023-03-13T05:40:18.389Z,43.33
2023-03-13T05:43:04.434Z,43.33
2023-03-13T05:45:49.500Z,43.35
2023-03-13T05:48:45.459Z,43.45
2023-03-13T05:51:34.873Z,43.33
2023-03-13T05:54:19.653Z,43.44
2023-03-13T05:56:54.880Z,43.44
2023-03-13T05:59:33.121Z,43.52
2023-03-13T06:02:17.981Z,43.64
2023-03-13T06:04:47.058Z,43.40
2023-03-13T06:07:13.538Z,43.54
2023-03-13T06:09:40.971Z,44.14
2023-03-13T06:12:08.643Z,43.99
2023-03-13T06:14:35.391Z,43.82
2023-03-13T06:17:20.284Z,43.72
2023-03-13T06:19:46.748Z,43.76
2023-03-13T06:22:13.080Z,43.88
2023-03-13T06:24:39.422Z,44.26
2023-03-13T06:27:06.936Z,44.67
2023-03-13T06:29:33.257Z,44.36
2023-03-13T06:31:59.722Z,44.11
2023-03-13T06:34:26.255Z,44.14
2023-03-13T06:36:52.579Z,44.36
2023-03-13T06:39:19.025Z,44.18
2023-03-13T06:41:45.405Z,43.81
2023-03-13T06:44:11.734Z,43.67
2023-03-13T06:46:38.123Z,43.93
2023-03-13T06:49:05.860Z,43.80
2023-03-13T06:51:32.194Z,43.85
2023-03-13T06:53:58.541Z,43.54
2023-03-13T06:56:24.939Z,43.56
2023-03-13T06:58:51.292Z,43.39
2023-03-13T07:01:17.702Z,43.79
2023-03-13T07:03:44.209Z,44.10
2023-03-13T07:06:10.732Z,44.19
2023-03-13T07:08:37.050Z,44.27
2023-03-13T07:11:07.311Z,44.14
2023-03-13T07:13:33.675Z,44.03
2023-03-13T07:16:00.602Z,44.50
2023-03-13T07:18:27.076Z,44.29
2023-03-13T07:20:57.059Z,45.57
2023-03-13T07:23:23.451Z,47.90
2023-03-13T07:25:56.117Z,46.35
2023-03-13T07:28:22.651Z,46.99
2023-03-13T07:30:49.446Z,45.63
2023-03-13T07:33:16.025Z,45.15
2023-03-13T07:35:47.842Z,45.67
2023-03-13T07:38:14.173Z,44.96
2023-03-13T07:40:40.529Z,45.31
2023-03-13T07:43:06.848Z,44.70
2023-03-13T07:45:33.203Z,44.44
2023-03-13T07:47:59.547Z,44.40
2023-03-13T07:50:25.950Z,44.36
2023-03-13T07:52:52.400Z,43.81
2023-03-13T07:55:18.768Z,44.20
2023-03-13T07:57:45.092Z,44.16
2023-03-13T08:00:16.419Z,44.38
2023-03-13T08:02:42.763Z,43.63
2023-03-13T08:05:09.108Z,44.16
2023-03-13T08:07:35.565Z,43.98
2023-03-13T08:10:01.924Z,43.94
2023-03-13T08:12:28.274Z,43.71
2023-03-13T08:14:54.672Z,44.18
2023-03-13T08:17:20.991Z,44.69
2023-03-13T08:19:47.318Z,44.50
2023-03-13T08:22:13.652Z,44.47
2023-03-13T08:24:40.014Z,44.45
2023-03-13T08:27:06.345Z,44.64
2023-03-13T08:29:32.686Z,44.52
2023-03-13T08:31:59.022Z,44.54
2023-03-13T08:34:25.343Z,44.46
2023-03-13T08:36:52.838Z,44.39
2023-03-13T08:39:20.904Z,44.54
2023-03-13T08:41:47.242Z,44.52
2023-03-13T08:44:14.301Z,44.65
2023-03-13T08:46:40.705Z,44.51
2023-03-13T08:49:07.364Z,44.71
2023-03-13T08:51:33.693Z,44.80
2023-03-13T08:54:00.494Z,44.86
2023-03-13T08:56:28.040Z,44.84
2023-03-13T08:58:54.926Z,44.90
2023-03-13T09:01:21.686Z,44.93
2023-03-13T09:03:48.119Z,44.53
2023-03-13T09:06:14.496Z,44.15
2023-03-13T09:08:40.933Z,43.89
2023-03-13T09:11:08.059Z,44.57
2023-03-13T09:13:35.156Z,44.45
2023-03-13T09:16:02.390Z,44.44
2023-03-13T09:18:28.794Z,44.25
2023-03-13T09:20:55.116Z,43.85
2023-03-13T09:23:21.442Z,43.79
2023-03-13T09:25:48.309Z,43.74
2023-03-13T09:28:14.630Z,44.11
2023-03-13T09:30:41.031Z,44.70
2023-03-13T09:33:07.356Z,44.87
2023-03-13T09:35:33.677Z,44.95
2023-03-13T09:38:00.116Z,44.93
2023-03-13T09:40:26.480Z,45.13
2023-03-13T09:42:57.112Z,44.99
2023-03-13T09:45:32.550Z,44.63
2023-03-13T09:47:59.426Z,44.74
2023-03-13T09:50:27.267Z,44.64
2023-03-13T09:52:54.744Z,44.61
2023-03-13T09:55:21.582Z,44.45
2023-03-13T09:57:47.830Z,44.84
2023-03-13T10:00:34.394Z,44.80
2023-03-13T10:03:03.547Z,45.09
2023-03-13T10:05:29.885Z,44.94
2023-03-13T10:08:08.484Z,45.16
2023-03-13T10:10:38.271Z,45.01
2023-03-13T10:13:10.330Z,45.26
2023-03-13T10:15:39.683Z,45.64
2023-03-13T10:18:11.310Z,45.56
2023-03-13T10:20:37.664Z,45.70
2023-03-13T10:23:06.488Z,45.96
2023-03-13T10:25:33.654Z,45.93
2023-03-13T10:28:00.146Z,46.02
2023-03-13T10:30:30.154Z,46.11
2023-03-13T10:33:00.456Z,46.21
2023-03-13T10:35:33.928Z,45.78
2023-03-13T10:38:02.083Z,45.61
2023-03-13T10:40:28.528Z,45.58
2023-03-13T10:43:00.962Z,45.58
2023-03-13T10:45:27.292Z,45.14
2023-03-13T10:47:54.163Z,45.50
2023-03-13T10:50:24.020Z,45.31
2023-03-13T10:52:50.437Z,45.28
2023-03-13T10:55:17.667Z,45.35
2023-03-13T10:57:51.265Z,45.69
2023-03-13T11:00:27.779Z,45.64
2023-03-13T11:02:54.423Z,45.41
2023-03-13T11:05:23.641Z,44.96
2023-03-13T11:07:49.964Z,44.94
2023-03-13T11:10:19.324Z,44.74
2023-03-13T11:12:46.120Z,44.90
2023-03-13T11:15:15.732Z,44.60
2023-03-13T11:17:42.104Z,44.93
2023-03-13T11:20:12.519Z,45.50
2023-03-13T11:22:49.567Z,45.54
2023-03-13T11:25:17.701Z,45.20
2023-03-13T11:27:49.964Z,45.55
2023-03-13T11:30:34.875Z,45.63
2023-03-13T11:33:12.335Z,45.62
2023-03-13T11:35:50.899Z,45.79
2023-03-13T11:38:29.314Z,45.76
2023-03-13T11:41:06.490Z,45.89
2023-03-13T11:43:35.683Z,45.92
2023-03-13T11:46:14.209Z,45.82
2023-03-13T11:48:44.610Z,45.76
2023-03-13T11:51:20.219Z,45.62
2023-03-13T11:53:53.172Z,45.70
2023-03-13T11:56:31.648Z,45.60
2023-03-13T11:59:13.362Z,45.62
2023-03-13T12:01:40.344Z,45.49
2023-03-13T12:04:25.416Z,45.62
2023-03-13T12:06:53.677Z,45.62
2023-03-13T12:09:23.581Z,45.75
2023-03-13T12:11:53.590Z,45.50
2023-03-13T12:14:22.618Z,45.39
2023-03-13T12:16:58.787Z,47.30
2023-03-13T12:19:36.959Z,47.23
2023-03-13T12:22:14.242Z,46.62
2023-03-13T12:24:42.809Z,46.38
2023-03-13T12:27:19.414Z,46.14
2023-03-13T12:29:50.440Z,45.92
2023-03-13T12:32:22.358Z,45.84
2023-03-13T12:35:04.085Z,46.35
2023-03-13T12:37:39.014Z,46.14
2023-03-13T12:40:12.598Z,46.64
2023-03-13T12:42:51.591Z,47.20
2023-03-13T12:45:18.656Z,47.40
2023-03-13T12:47:54.943Z,47.45
2023-03-13T12:50:28.094Z,46.81
2023-03-13T12:52:57.619Z,47.48
2023-03-13T12:55:28.386Z,46.83
2023-03-13T12:57:57.517Z,46.39
2023-03-13T13:00:29.262Z,46.41
2023-03-13T13:03:21.711Z,46.36
2023-03-13T13:06:06.619Z,46.62
2023-03-13T13:08:34.316Z,45.96
2023-03-13T13:11:19.511Z,46.03
2023-03-13T13:13:45.845Z,45.71
2023-03-13T13:16:19.923Z,45.93
2023-03-13T13:18:46.281Z,46.12
2023-03-13T13:21:15.542Z,46.11
2023-03-13T13:23:47.018Z,46.25
2023-03-13T13:26:33.666Z,46.34
2023-03-13T13:29:00.339Z,45.82
2023-03-13T13:31:45.862Z,45.86
2023-03-13T13:34:36.466Z,45.57
2023-03-13T13:37:04.041Z,45.59
2023-03-13T13:39:30.290Z,45.68
2023-03-13T13:41:56.682Z,46.13
2023-03-13T13:44:24.049Z,45.91
2023-03-13T13:46:50.458Z,45.63
2023-03-13T13:49:17.369Z,46.04
2023-03-13T13:52:03.876Z,45.66
2023-03-13T13:54:42.015Z,45.33
2023-03-13T13:57:15.203Z,45.70
2023-03-13T13:59:44.815Z,45.74
2023-03-13T14:02:14.288Z,45.34
2023-03-13T14:04:41.342Z,45.69
2023-03-13T14:07:07.702Z,45.83
2023-03-13T14:09:40.101Z,45.91
2023-03-13T14:12:24.641Z,46.15
2023-03-13T14:15:11.234Z,46.02
2023-03-13T14:17:38.313Z,46.34
2023-03-13T14:20:09.124Z,46.10
2023-03-13T14:22:45.321Z,45.96
2023-03-13T14:25:12.203Z,45.96
2023-03-13T14:27:42.809Z,45.68
2023-03-13T14:30:10.577Z,45.65
2023-03-13T14:32:37.378Z,45.30
2023-03-13T14:35:07.430Z,45.51
2023-03-13T14:37:37.592Z,46.09
2023-03-13T14:40:09.582Z,46.01
2023-03-13T14:42:39.390Z,45.66
2023-03-13T14:45:12.472Z,45.87
2023-03-13T14:47:38.805Z,45.96
2023-03-13T14:50:08.923Z,45.75
2023-03-13T14:52:35.274Z,45.41
2023-03-13T14:55:02.284Z,45.41
2023-03-13T14:57:28.659Z,45.24
2023-03-13T14:59:55.117Z,45.29
2023-03-13T15:02:27.306Z,45.71
2023-03-13T15:04:54.447Z,46.16
2023-03-13T15:07:20.796Z,45.97
2023-03-13T15:09:47.121Z,46.26
2023-03-13T15:12:13.827Z,46.11
2023-03-13T15:14:43.410Z,46.34
2023-03-13T15:17:23.023Z,46.36
2023-03-13T15:19:56.276Z,46.26
2023-03-13T15:22:31.962Z,45.85
2023-03-13T15:25:07.258Z,45.86
2023-03-13T15:27:34.299Z,46.03
2023-03-13T15:30:00.677Z,46.15
2023-03-13T15:32:30.593Z,46.01
2023-03-13T15:34:58.437Z,45.98
2023-03-13T15:37:25.292Z,45.91
2023-03-13T15:39:51.608Z,46.33
2023-03-13T15:42:17.948Z,46.22
2023-03-13T15:44:44.274Z,46.37
2023-03-13T15:47:12.166Z,46.22
2023-03-13T15:49:38.737Z,46.37
2023-03-13T15:52:05.886Z,46.52
2023-03-13T15:54:32.230Z,46.58
2023-03-13T15:56:58.566Z,46.49
2023-03-13T15:59:24.949Z,46.45
2023-03-13T16:01:51.384Z,46.46
2023-03-13T16:04:17.770Z,46.49
2023-03-13T16:06:44.206Z,46.65
2023-03-13T16:09:10.528Z,46.75
2023-03-13T16:11:36.872Z,46.62
2023-03-13T16:14:03.220Z,47.07
2023-03-13T16:16:30.241Z,46.98
2023-03-13T16:18:57.068Z,46.99
2023-03-13T16:21:24.617Z,46.80
2023-03-13T16:23:50.953Z,46.59
2023-03-13T16:26:17.814Z,46.57
2023-03-13T16:28:44.162Z,46.53
2023-03-13T16:31:15.057Z,47.05
2023-03-13T16:33:41.457Z,46.99
2023-03-13T16:36:11.028Z,46.69
2023-03-13T16:38:37.361Z,47.12
2023-03-13T16:41:03.711Z,47.05
2023-03-13T16:43:30.071Z,46.97
2023-03-13T16:45:56.878Z,46.87
2023-03-13T16:48:23.241Z,46.93
2023-03-13T16:50:49.576Z,46.84
2023-03-13T16:53:15.909Z,46.96
2023-03-13T16:55:42.244Z,47.05
2023-03-13T16:58:09.960Z,47.00
2023-03-13T17:00:36.698Z,46.99
2023-03-13T17:03:03.243Z,46.72
2023-03-13T17:05:29.674Z,46.92
2023-03-13T17:07:56.035Z,47.28
2023-03-13T17:10:31.763Z,47.19
2023-03-13T17:12:58.099Z,47.28
2023-03-13T17:15:24.676Z,46.93
2023-03-13T17:17:51.730Z,47.52
2023-03-13T17:20:22.233Z,47.40
2023-03-13T17:22:48.555Z,47.49
2023-03-13T17:25:14.907Z,47.71
2023-03-13T17:27:41.418Z,47.69
2023-03-13T17:30:33.842Z,47.77
2023-03-13T17:33:00.873Z,47.78
2023-03-13T17:35:27.266Z,47.83
2023-03-13T17:37:53.631Z,48.11
2023-03-13T17:40:23.625Z,48.02
2023-03-13T17:42:50.041Z,48.13
2023-03-13T17:45:16.590Z,48.04
2023-03-13T17:47:42.928Z,48.24
2023-03-13T17:50:26.824Z,48.13
2023-03-13T17:52:53.256Z,48.20
2023-03-13T17:55:19.624Z,48.15
2023-03-13T17:57:47.766Z,48.29
2023-03-13T18:00:24.960Z,48.72
2023-03-13T18:02:51.492Z,47.94
2023-03-13T18:05:24.024Z,48.03
2023-03-13T18:07:50.518Z,48.31
2023-03-13T18:10:23.705Z,48.29
2023-03-13T18:12:51.356Z,48.39
2023-03-13T18:15:18.180Z,47.83
2023-03-13T18:17:44.585Z,48.10
2023-03-13T18:20:18.169Z,48.25
2023-03-13T18:22:44.572Z,48.33
2023-03-13T18:25:10.939Z,48.73
2023-03-13T18:27:37.303Z,48.72
2023-03-13T18:30:03.777Z,48.90
2023-03-13T18:32:30.150Z,48.78
2023-03-13T18:34:56.695Z,48.46
2023-03-13T18:37:27.960Z,48.31
2023-03-13T18:39:55.748Z,48.37
2023-03-13T18:42:22.382Z,48.69
2023-03-13T18:44:48.708Z,49.58
2023-03-13T18:47:15.679Z,49.19
2023-03-13T18:49:42.047Z,49.15
2023-03-13T18:52:09.534Z,48.94
2023-03-13T18:54:35.851Z,48.92
2023-03-13T18:57:02.182Z,48.66
2023-03-13T18:59:29.506Z,48.80
2023-03-13T19:01:55.921Z,48.63
2023-03-13T19:04:22.332Z,48.74
2023-03-13T19:06:48.679Z,48.58
2023-03-13T19:09:41.176Z,48.64
2023-03-13T19:12:02.089Z,48.91
2023-03-13T19:14:28.420Z,48.99
2023-03-13T19:16:56.360Z,49.95
2023-03-13T19:19:22.795Z,50.23
2023-03-13T19:21:49.338Z,50.51
2023-03-13T19:24:15.659Z,50.79
2023-03-13T19:26:45.692Z,50.56
2023-03-13T19:29:22.430Z,50.56
2023-03-13T19:31:48.805Z,50.68
2023-03-13T19:34:17.084Z,50.43
2023-03-13T19:36:44.899Z,50.39
2023-03-13T19:39:12.972Z,50.59
2023-03-13T19:41:39.312Z,50.55
2023-03-13T19:44:05.643Z,50.54
2023-03-13T19:46:31.962Z,50.49
2023-03-13T19:48:58.752Z,50.51
2023-03-13T19:51:25.196Z,50.55
2023-03-13T19:53:51.562Z,50.21
2023-03-13T19:56:18.820Z,50.17
2023-03-13T19:58:48.782Z,50.27
2023-03-13T20:01:17.742Z,50.37
2023-03-13T20:03:44.593Z,50.29
2023-03-13T20:06:12.988Z,50.42
2023-03-13T20:08:39.328Z,50.36
2023-03-13T20:11:06.240Z,50.42
2023-03-13T20:13:32.595Z,50.43
2023-03-13T20:15:58.968Z,50.27
2023-03-13T20:18:25.384Z,50.13
2023-03-13T20:20:51.706Z,50.21
2023-03-13T20:23:18.046Z,50.29
2023-03-13T20:25:44.377Z,50.14
2023-03-13T20:28:10.724Z,50.18
2023-03-13T20:30:40.573Z,50.13
2023-03-13T20:33:06.952Z,50.17
2023-03-13T20:35:33.416Z,50.26
2023-03-13T20:38:01.745Z,50.12
2023-03-13T20:40:28.116Z,50.85
2023-03-13T20:42:54.444Z,50.56
2023-03-13T20:45:20.775Z,50.46
2023-03-13T20:47:47.091Z,50.46
2023-03-13T20:50:13.415Z,50.34
2023-03-13T20:52:39.724Z,50.43
2023-03-13T20:55:06.062Z,50.48
2023-03-13T20:57:32.394Z,50.31
2023-03-13T20:59:58.718Z,50.36
2023-03-13T21:02:25.054Z,50.58
2023-03-13T21:04:51.419Z,50.54
2023-03-13T21:07:17.755Z,50.54
2023-03-13T21:09:44.094Z,50.40
2023-03-13T21:12:10.462Z,50.66
2023-03-13T21:14:37.193Z,50.70
2023-03-13T21:17:04.160Z,50.51
2023-03-13T21:19:30.499Z,50.49
2023-03-13T21:21:56.866Z,50.49
2023-03-13T21:24:23.205Z,50.64
2023-03-13T21:26:49.517Z,50.51
2023-03-13T21:29:15.880Z,50.44
2023-03-13T21:31:42.283Z,50.39
2023-03-13T21:34:10.539Z,50.44
2023-03-13T21:36:36.883Z,50.68
2023-03-13T21:39:03.274Z,50.67
2023-03-13T21:41:29.600Z,50.72
2023-03-13T21:43:55.954Z,50.63
2023-03-13T21:46:23.780Z,50.64
2023-03-13T21:48:50.260Z,50.58
2023-03-13T21:51:16.617Z,50.67
2023-03-13T21:53:44.426Z,50.67
2023-03-13T21:56:15.186Z,50.72
2023-03-13T21:58:41.921Z,50.58
2023-03-13T22:01:08.278Z,50.74
2023-03-13T22:03:34.789Z,50.69
2023-03-13T22:06:01.135Z,50.67
2023-03-13T22:08:27.472Z,50.46
2023-03-13T22:10:55.060Z,50.44
2023-03-13T22:13:21.415Z,50.14
2023-03-13T22:15:47.746Z,50.12
2023-03-13T22:18:14.322Z,50.50
2023-03-13T22:20:40.854Z,50.61
2023-03-13T22:23:07.307Z,50.57
2023-03-13T22:25:33.863Z,50.66
2023-03-13T22:28:00.178Z,50.46
2023-03-13T22:30:26.483Z,50.75
2023-03-13T22:32:52.841Z,50.64
2023-03-13T22:35:19.215Z,50.67
2023-03-13T22:37:45.568Z,50.79
2023-03-13T22:40:11.978Z,50.74
2023-03-13T22:42:38.305Z,50.58
2023-03-13T22:45:04.723Z,50.68
2023-03-13T22:47:32.416Z,50.65
2023-03-13T22:49:58.763Z,50.69
2023-03-13T22:52:30.611Z,50.58
2023-03-13T22:54:57.736Z,50.69
2023-03-13T22:57:24.082Z,50.83
2023-03-13T22:59:50.460Z,50.60
2023-03-13T23:02:16.790Z,50.63
2023-03-13T23:04:43.159Z,50.96
2023-03-13T23:07:09.485Z,50.83
2023-03-13T23:09:35.848Z,50.67
2023-03-13T23:12:02.155Z,50.63
2023-03-13T23:14:30.181Z,50.80
2023-03-13T23:16:56.925Z,50.72
2023-03-13T23:19:23.486Z,50.64
2023-03-13T23:21:49.816Z,50.73
2023-03-13T23:24:16.143Z,50.76
2023-03-13T23:26:42.452Z,50.68
2023-03-13T23:29:08.785Z,50.72
2023-03-13T23:31:35.310Z,50.65
2023-03-13T23:34:01.636Z,50.77
2023-03-13T23:36:27.944Z,50.88
2023-03-13T23:38:54.270Z,50.87
2023-03-13T23:41:20.627Z,50.91
2023-03-13T23:43:46.960Z,50.78
2023-03-13T23:46:23.120Z,50.83
2023-03-13T23:48:51.951Z,50.79
2023-03-13T23:51:18.274Z,50.83
2023-03-13T23:53:44.599Z,51.00
2023-03-13T23:56:11.199Z,50.97
2023-03-13T23:58:37.567Z,50.91
